Lilly, Illinois
Current Conditions -  °F | °C
As of 5:56 AM on Friday 28 Nov 2014 (Local Time) from KBMI Reporting Station
Scattered Clouds Scattered Clouds  
Wind Chill: -12°   Ceiling: Unl
Heat Index: -7°   Visibility: 10mi
Dew Point: -11°   Wind: 7mph
Humidity: 78%   Direction: 170°S
Pressure: 30.3"   Gusts: NA
Location:  40.5282°N, 89.3251°W
Report Text: KBMI 281156Z 17006KT 10SM SCT110 M07/M11 A3030 RMK AO2 58023 T10721105 11072 21100 SLP285
Loading
Personal Weather Stations






























Interactive Weather Map New forecast layout! Learn more

10-Day Weather Forecast

Advertisements
Track Severe Weather on mobile